Time;durP1;ratioP1;P1;durP2;ratioP2;P2;SDS_P1;SDS_P2;PMS_P1;PMS_P2;Temp;Humidity;BMP_temperature;BMP_pressure;BME280_temperature;BME280_humidity;BME280_pressure;Samples;Min_cycle;Max_cycle;Signal;HPM_P1;HPM_P2
2022/08/27 00:00:46;;;;;;;3.65;1.80;;;;;;;;;;5167326;27;20096;-77
2022/08/27 00:03:13;;;;;;;7.55;2.00;;;;;;;;;;5169140;27;20035;-78
2022/08/27 00:05:40;;;;;;;10.50;2.25;;;;;;;;;;5158457;27;20091;-77
2022/08/27 00:08:09;;;;;;;7.82;1.75;;;;;;;;;;5159693;27;20096;-77
2022/08/27 00:10:37;;;;;;;4.35;1.88;;;;;;;;;;5158451;27;20028;-76
2022/08/27 00:13:04;;;;;;;6.88;2.20;;;;;;;;;;5164277;27;20100;-77
2022/08/27 00:15:32;;;;;;;5.60;1.88;;;;;;;;;;5160741;27;20028;-76
2022/08/27 00:17:59;;;;;;;6.57;2.10;;;;;;;;;;5167912;27;20039;-78
2022/08/27 00:20:27;;;;;;;4.55;2.17;;;;;;;;;;5168910;27;20032;-76
2022/08/27 00:22:54;;;;;;;6.78;1.80;;;;;;;;;;5165224;27;20062;-77
2022/08/27 00:25:22;;;;;;;5.70;1.70;;;;;;;;;;5162520;27;20047;-78
2022/08/27 00:27:49;;;;;;;9.82;2.40;;;;;;;;;;5162516;27;20035;-77
2022/08/27 00:30:17;;;;;;;5.65;1.90;;;;;;;;;;5165122;27;20032;-77
2022/08/27 00:32:45;;;;;;;4.85;1.88;;;;;;;;;;5168365;27;20133;-76
2022/08/27 00:35:14;;;;;;;3.85;1.50;;;;;;;;;;5157988;27;20051;-77
2022/08/27 00:37:42;;;;;;;4.88;1.73;;;;;;;;;;5166135;27;20134;-77
2022/08/27 00:40:14;;;;;;;7.97;2.33;;;;;;;;;;5160559;27;20105;-77
2022/08/27 00:42:44;;;;;;;3.83;1.58;;;;;;;;;;5164246;27;20056;-77
2022/08/27 00:45:12;;;;;;;7.88;1.92;;;;;;;;;;5160508;27;20028;-77
2022/08/27 00:47:42;;;;;;;5.43;1.73;;;;;;;;;;5160301;27;20083;-77
2022/08/27 00:50:14;;;;;;;6.38;1.92;;;;;;;;;;5159815;27;21200;-77
2022/08/27 00:53:01;;;;;;;4.00;1.88;;;;;;;;;;5159932;27;20040;-77
2022/08/27 00:55:37;;;;;;;4.07;1.65;;;;;;;;;;5163504;27;20055;-77
2022/08/27 00:58:04;;;;;;;6.30;2.05;;;;;;;;;;5172683;27;20032;-78
2022/08/27 01:00:32;;;;;;;6.57;2.10;;;;;;;;;;5164975;27;20035;-77
2022/08/27 01:02:59;;;;;;;8.25;1.80;;;;;;;;;;5168996;27;20036;-77
2022/08/27 01:05:27;;;;;;;4.80;2.10;;;;;;;;;;5164398;27;20047;-76
2022/08/27 01:07:56;;;;;;;6.75;2.17;;;;;;;;;;5163838;27;20091;-77
2022/08/27 01:10:25;;;;;;;5.00;1.98;;;;;;;;;;5163416;27;20088;-77
2022/08/27 01:12:53;;;;;;;5.32;1.98;;;;;;;;;;5166611;27;20042;-78
2022/08/27 01:15:21;;;;;;;5.00;1.90;;;;;;;;;;5168046;27;20131;-77
2022/08/27 01:17:48;;;;;;;6.53;1.77;;;;;;;;;;5173027;27;20103;-76
2022/08/27 01:20:28;;;;;;;5.90;2.35;;;;;;;;;;5166526;27;20062;-76
2022/08/27 01:23:05;;;;;;;6.45;1.95;;;;;;;;;;5172315;27;20042;-77
2022/08/27 01:25:33;;;;;;;5.07;2.22;;;;;;;;;;5163029;27;20085;-77
2022/08/27 01:28:01;;;;;;;6.47;2.28;;;;;;;;;;5168267;27;20035;-76
2022/08/27 01:30:30;;;;;;;8.75;2.47;;;;;;;;;;5175254;27;20031;-77
2022/08/27 01:32:57;;;;;;;4.85;2.22;;;;;;;;;;5162226;27;20031;-76
2022/08/27 01:35:25;;;;;;;8.27;2.10;;;;;;;;;;5160299;27;20032;-77
2022/08/27 01:37:54;;;;;;;5.60;1.80;;;;;;;;;;5168952;27;20028;-77
2022/08/27 01:40:23;;;;;;;5.75;2.38;;;;;;;;;;5157754;27;20414;-77
2022/08/27 01:42:53;;;;;;;8.18;2.00;;;;;;;;;;5161808;27;20065;-76
2022/08/27 01:45:21;;;;;;;4.72;1.98;;;;;;;;;;5170895;27;20081;-77
2022/08/27 01:47:48;;;;;;;4.63;1.85;;;;;;;;;;5167212;27;20036;-77
2022/08/27 01:50:21;;;;;;;6.97;2.20;;;;;;;;;;5171286;27;20039;-77
2022/08/27 01:52:49;;;;;;;4.88;1.83;;;;;;;;;;5161300;27;20047;-77
2022/08/27 01:55:17;;;;;;;6.30;1.92;;;;;;;;;;5160219;27;20132;-77
2022/08/27 01:57:45;;;;;;;8.25;2.20;;;;;;;;;;5161962;27;20031;-78
2022/08/27 02:00:15;;;;;;;8.90;2.60;;;;;;;;;;5157555;27;20040;-77
2022/08/27 02:02:43;;;;;;;4.07;1.90;;;;;;;;;;5169702;27;20098;-77
2022/08/27 02:05:10;;;;;;;7.72;2.25;;;;;;;;;;5170631;27;20039;-76
2022/08/27 02:07:38;;;;;;;9.82;2.05;;;;;;;;;;5168060;27;20015;-76
2022/08/27 02:10:06;;;;;;;5.57;2.00;;;;;;;;;;5164840;27;20035;-76
2022/08/27 02:12:34;;;;;;;7.28;2.00;;;;;;;;;;5164510;27;20052;-76
2022/08/27 02:15:01;;;;;;;7.05;1.88;;;;;;;;;;5162914;27;21286;-77
2022/08/27 02:17:29;;;;;;;7.03;1.83;;;;;;;;;;5166321;27;20051;-77
2022/08/27 02:19:56;;;;;;;7.95;2.00;;;;;;;;;;5164975;27;20028;-76
2022/08/27 02:22:23;;;;;;;7.78;1.90;;;;;;;;;;5158055;27;20040;-76
2022/08/27 02:24:50;;;;;;;8.63;2.22;;;;;;;;;;5163062;27;20050;-75
2022/08/27 02:27:17;;;;;;;4.32;1.80;;;;;;;;;;5155889;27;20047;-76
2022/08/27 02:29:46;;;;;;;6.70;2.17;;;;;;;;;;5163298;27;20044;-76
2022/08/27 02:32:15;;;;;;;6.97;2.20;;;;;;;;;;5161418;27;20028;-77
2022/08/27 02:34:57;;;;;;;4.50;2.10;;;;;;;;;;5160474;27;20062;-77
2022/08/27 02:37:24;;;;;;;6.25;2.08;;;;;;;;;;5159814;27;20030;-76
2022/08/27 02:39:52;;;;;;;4.70;2.10;;;;;;;;;;5166034;27;20094;-75
2022/08/27 02:42:19;;;;;;;7.60;1.77;;;;;;;;;;5163213;27;20027;-75
2022/08/27 02:44:46;;;;;;;6.05;2.15;;;;;;;;;;5162856;27;20135;-76
2022/08/27 02:47:15;;;;;;;6.43;2.10;;;;;;;;;;5175096;27;20119;-75
2022/08/27 02:49:43;;;;;;;4.72;1.90;;;;;;;;;;5169636;27;20050;-77
2022/08/27 02:52:10;;;;;;;5.90;2.10;;;;;;;;;;5168474;27;20035;-76
2022/08/27 02:54:39;;;;;;;6.53;2.08;;;;;;;;;;5161004;27;20036;-76
2022/08/27 02:57:06;;;;;;;5.90;2.13;;;;;;;;;;5170197;27;20084;-78
2022/08/27 02:59:33;;;;;;;9.15;1.95;;;;;;;;;;5170235;27;20047;-76
2022/08/27 03:02:00;;;;;;;6.13;2.20;;;;;;;;;;5165136;27;20062;-76
2022/08/27 03:04:28;;;;;;;6.10;2.10;;;;;;;;;;5166360;27;20039;-76
2022/08/27 03:06:55;;;;;;;7.93;2.22;;;;;;;;;;5161387;27;20139;-77
2022/08/27 03:09:22;;;;;;;4.50;2.10;;;;;;;;;;5170553;27;20054;-77
2022/08/27 03:11:50;;;;;;;10.15;2.35;;;;;;;;;;5162101;27;20042;-76
2022/08/27 03:14:17;;;;;;;3.88;1.95;;;;;;;;;;5164442;27;20091;-77
2022/08/27 03:16:44;;;;;;;8.05;2.08;;;;;;;;;;5162169;27;20100;-76
2022/08/27 03:19:11;;;;;;;6.90;2.05;;;;;;;;;;5168136;27;20098;-76
2022/08/27 03:21:39;;;;;;;6.80;2.00;;;;;;;;;;5166713;27;20137;-77
2022/08/27 03:24:08;;;;;;;4.55;1.83;;;;;;;;;;5176068;27;20039;-77
2022/08/27 03:26:40;;;;;;;4.95;2.00;;;;;;;;;;5174113;27;20023;-76
2022/08/27 03:29:18;;;;;;;3.47;1.80;;;;;;;;;;5175606;27;20060;-76
2022/08/27 03:31:45;;;;;;;8.00;2.10;;;;;;;;;;5167185;27;20035;-77
2022/08/27 03:34:13;;;;;;;7.53;2.10;;;;;;;;;;5166972;27;20071;-77
2022/08/27 03:36:47;;;;;;;6.13;1.95;;;;;;;;;;5164628;27;20038;-77
2022/08/27 03:39:14;;;;;;;4.63;1.73;;;;;;;;;;5145717;27;20096;-76
2022/08/27 03:41:42;;;;;;;3.88;1.80;;;;;;;;;;5140883;27;20035;-76
2022/08/27 03:44:22;;;;;;;7.13;1.70;;;;;;;;;;5140505;27;20043;-76
2022/08/27 03:46:50;;;;;;;6.75;1.83;;;;;;;;;;5141935;27;20032;-76
2022/08/27 03:49:18;;;;;;;8.85;1.83;;;;;;;;;;5149610;27;20051;-78
2022/08/27 03:51:47;;;;;;;7.90;2.10;;;;;;;;;;5144481;27;20050;-77
2022/08/27 03:54:14;;;;;;;6.88;2.10;;;;;;;;;;5146261;27;20043;-77
2022/08/27 03:56:42;;;;;;;6.25;2.13;;;;;;;;;;5147490;27;20062;-76
2022/08/27 03:59:09;;;;;;;6.82;2.30;;;;;;;;;;5147130;27;20042;-76
2022/08/27 04:01:37;;;;;;;5.00;2.00;;;;;;;;;;5148966;27;20032;-77
2022/08/27 04:04:04;;;;;;;7.80;2.15;;;;;;;;;;5149971;27;20065;-77
2022/08/27 04:06:33;;;;;;;3.97;1.73;;;;;;;;;;5142758;27;20032;-76
2022/08/27 04:09:00;;;;;;;5.47;2.00;;;;;;;;;;5145824;27;20097;-76
2022/08/27 04:11:28;;;;;;;7.35;1.98;;;;;;;;;;5142223;27;20030;-76
2022/08/27 04:13:56;;;;;;;6.10;2.00;;;;;;;;;;5141935;27;20051;-77
2022/08/27 04:16:24;;;;;;;8.02;2.30;;;;;;;;;;5145493;27;20099;-79
2022/08/27 04:18:52;;;;;;;4.82;2.70;;;;;;;;;;5142299;27;20040;-77
2022/08/27 04:21:19;;;;;;;8.00;2.25;;;;;;;;;;5146498;27;20047;-76
2022/08/27 04:23:46;;;;;;;5.95;2.28;;;;;;;;;;5136904;27;20101;-77
2022/08/27 04:26:14;;;;;;;6.78;2.05;;;;;;;;;;5145421;27;20075;-78
2022/08/27 04:28:41;;;;;;;6.47;2.40;;;;;;;;;;5143197;27;20109;-73
2022/08/27 04:31:14;;;;;;;;;;;;;;;;;;5142370;27;20041;-77
2022/08/27 04:33:42;;;;;;;10.35;2.45;;;;;;;;;;5146254;27;43555;-77
2022/08/27 04:36:17;;;;;;;5.90;2.40;;;;;;;;;;5153812;27;20054;-76
2022/08/27 04:38:44;;;;;;;5.57;2.35;;;;;;;;;;5167727;27;20145;-77
2022/08/27 04:41:26;;;;;;;4.57;2.28;;;;;;;;;;5157038;27;20095;-76
2022/08/27 04:43:55;;;;;;;5.57;2.03;;;;;;;;;;5166365;27;20106;-76
2022/08/27 04:46:29;;;;;;;4.63;2.10;;;;;;;;;;5168024;27;20034;-76
2022/08/27 04:48:57;;;;;;;6.60;2.38;;;;;;;;;;5170661;27;20051;-76
2022/08/27 04:51:25;;;;;;;5.45;2.50;;;;;;;;;;5162859;27;20052;-77
2022/08/27 04:53:53;;;;;;;8.73;2.53;;;;;;;;;;5163351;27;20043;-76
2022/08/27 04:56:21;;;;;;;10.20;2.60;;;;;;;;;;5167583;27;20019;-77
2022/08/27 04:58:51;;;;;;;8.65;2.78;;;;;;;;;;5161381;27;20032;-76
2022/08/27 05:01:23;;;;;;;5.50;2.42;;;;;;;;;;5164803;27;20095;-77
2022/08/27 05:03:51;;;;;;;7.00;2.30;;;;;;;;;;5162208;27;20043;-77
2022/08/27 05:06:18;;;;;;;6.82;2.53;;;;;;;;;;5160262;27;20047;-78
2022/08/27 05:08:45;;;;;;;6.30;2.15;;;;;;;;;;5166926;27;20043;-77
2022/08/27 05:11:13;;;;;;;9.10;2.22;;;;;;;;;;5162455;27;20026;-77
2022/08/27 05:13:41;;;;;;;7.00;2.30;;;;;;;;;;5163935;27;20047;-76
2022/08/27 05:16:10;;;;;;;6.07;2.35;;;;;;;;;;5167588;27;20034;-77
2022/08/27 05:18:37;;;;;;;5.22;2.30;;;;;;;;;;5163069;27;20034;-78
2022/08/27 05:21:17;;;;;;;6.28;2.47;;;;;;;;;;5168796;27;20065;-77
2022/08/27 05:23:45;;;;;;;5.45;2.20;;;;;;;;;;5161703;27;20033;-77
2022/08/27 05:26:12;;;;;;;8.18;2.30;;;;;;;;;;5165948;27;20051;-77
2022/08/27 05:28:39;;;;;;;8.90;2.50;;;;;;;;;;5168642;27;20036;-76
2022/08/27 05:31:09;;;;;;;7.95;2.50;;;;;;;;;;5163453;27;20070;-78
2022/08/27 05:33:40;;;;;;;4.82;2.30;;;;;;;;;;5160878;27;20054;-76
2022/08/27 05:36:08;;;;;;;5.60;2.33;;;;;;;;;;5163847;27;20051;-77
2022/08/27 05:38:35;;;;;;;5.82;2.47;;;;;;;;;;5164184;27;20105;-77
2022/08/27 05:41:04;;;;;;;4.80;2.15;;;;;;;;;;5160045;27;20063;-77
2022/08/27 05:43:31;;;;;;;5.05;2.40;;;;;;;;;;5158612;27;20067;-76
2022/08/27 05:45:58;;;;;;;4.80;2.40;;;;;;;;;;5163580;27;20028;-75
2022/08/27 05:48:25;;;;;;;6.28;2.42;;;;;;;;;;5164745;27;20065;-76
2022/08/27 05:50:52;;;;;;;6.75;2.30;;;;;;;;;;5162046;27;20041;-77
2022/08/27 05:53:20;;;;;;;3.00;2.22;;;;;;;;;;5158582;27;20116;-76
2022/08/27 05:55:47;;;;;;;6.57;2.40;;;;;;;;;;5159894;27;20031;-77
2022/08/27 06:01:03;;;;;;;4.25;2.15;;;;;;;;;;5166097;27;20042;-77
2022/08/27 06:01:05;;;;;;;2.97;2.05;;;;;;;;;;5166605;27;20031;-76
2022/08/27 06:03:37;;;;;;;6.75;2.70;;;;;;;;;;5161062;27;20108;-76
2022/08/27 06:06:06;;;;;;;8.05;2.60;;;;;;;;;;5165679;27;20087;-74
2022/08/27 06:08:33;;;;;;;9.75;2.55;;;;;;;;;;5158729;27;20067;-77
2022/08/27 06:11:01;;;;;;;4.85;2.40;;;;;;;;;;5164130;27;20042;-77
2022/08/27 06:13:29;;;;;;;7.47;2.50;;;;;;;;;;5163326;27;20087;-79
2022/08/27 06:16:02;;;;;;;4.63;2.30;;;;;;;;;;5161569;27;20047;-76
2022/08/27 06:18:33;;;;;;;7.25;2.42;;;;;;;;;;5166168;27;20043;-77
2022/08/27 06:21:00;;;;;;;8.48;2.60;;;;;;;;;;5165634;27;20041;-76
2022/08/27 06:23:28;;;;;;;6.88;2.20;;;;;;;;;;5169023;27;20063;-77
2022/08/27 06:25:56;;;;;;;5.15;2.40;;;;;;;;;;5169154;27;20020;-77
2022/08/27 06:28:24;;;;;;;5.70;2.25;;;;;;;;;;5165922;27;20032;-77
2022/08/27 06:30:51;;;;;;;7.72;2.47;;;;;;;;;;5164998;27;20062;-76
2022/08/27 06:33:20;;;;;;;5.65;2.35;;;;;;;;;;5162783;27;20059;-76
2022/08/27 06:35:47;;;;;;;9.25;2.97;;;;;;;;;;5169329;27;20032;-76
2022/08/27 06:38:14;;;;;;;8.70;2.67;;;;;;;;;;5164428;27;20107;-77
2022/08/27 06:40:41;;;;;;;9.25;2.83;;;;;;;;;;5174107;27;20050;-76
2022/08/27 06:43:09;;;;;;;4.43;2.20;;;;;;;;;;5160981;27;20035;-76
2022/08/27 06:45:39;;;;;;;7.50;2.50;;;;;;;;;;5164415;27;20058;-75
2022/08/27 06:48:06;;;;;;;9.25;2.50;;;;;;;;;;5166336;27;20023;-77
2022/08/27 06:50:37;;;;;;;9.30;2.75;;;;;;;;;;5164167;27;20050;-77
2022/08/27 06:53:05;;;;;;;8.10;2.53;;;;;;;;;;5164813;27;20039;-76
2022/08/27 06:55:32;;;;;;;6.63;2.53;;;;;;;;;;5160125;27;20058;-76
2022/08/27 06:58:03;;;;;;;11.20;2.80;;;;;;;;;;5170463;27;20035;-76
2022/08/27 07:00:30;;;;;;;8.75;2.45;;;;;;;;;;5164174;27;20107;-76
2022/08/27 07:02:57;;;;;;;8.27;2.35;;;;;;;;;;5164496;27;20108;-76
2022/08/27 07:05:26;;;;;;;14.10;2.80;;;;;;;;;;5163345;27;20047;-77
2022/08/27 07:07:53;;;;;;;7.97;2.75;;;;;;;;;;5170760;27;20050;-77
2022/08/27 07:10:20;;;;;;;7.15;2.67;;;;;;;;;;5162712;27;20099;-75
2022/08/27 07:12:48;;;;;;;6.05;2.35;;;;;;;;;;5161583;27;20874;-76
2022/08/27 07:15:15;;;;;;;9.65;2.80;;;;;;;;;;5160767;27;21720;-78
2022/08/27 07:17:45;;;;;;;6.93;2.47;;;;;;;;;;5154756;27;20055;-77
2022/08/27 07:20:14;;;;;;;5.45;2.38;;;;;;;;;;5151504;27;20071;-74
2022/08/27 07:22:42;;;;;;;4.22;1.88;;;;;;;;;;5160871;27;20032;-75
2022/08/27 07:25:11;;;;;;;6.18;1.80;;;;;;;;;;5162124;27;20020;-77
2022/08/27 07:27:38;;;;;;;4.55;2.25;;;;;;;;;;5165808;27;20058;-76
2022/08/27 07:30:07;;;;;;;6.45;2.38;;;;;;;;;;5165015;27;20043;-76
2022/08/27 07:32:34;;;;;;;7.05;2.10;;;;;;;;;;5163851;27;20048;-75
2022/08/27 07:35:02;;;;;;;5.15;2.35;;;;;;;;;;5163396;27;20039;-76
2022/08/27 07:37:29;;;;;;;4.82;2.30;;;;;;;;;;5167719;27;20040;-74
2022/08/27 07:40:03;;;;;;;7.63;2.25;;;;;;;;;;5157717;27;20039;-76
2022/08/27 07:45:17;;;;;;;4.93;2.28;;;;;;;;;;5160395;27;20057;-74
2022/08/27 07:47:45;;;;;;;6.60;2.20;;;;;;;;;;5156404;27;20055;-77
2022/08/27 07:50:12;;;;;;;9.00;2.40;;;;;;;;;;5155189;27;20043;-75
2022/08/27 07:52:42;;;;;;;8.80;2.30;;;;;;;;;;5149052;27;20031;-75
2022/08/27 07:55:13;;;;;;;6.00;1.80;;;;;;;;;;5164558;27;20039;-77
2022/08/27 07:57:41;;;;;;;2.95;1.52;;;;;;;;;;5157464;27;20175;-75
2022/08/27 08:00:09;;;;;;;6.32;1.38;;;;;;;;;;5150646;27;20062;-75
2022/08/27 08:02:37;;;;;;;2.10;1.23;;;;;;;;;;5153436;27;20100;-76
2022/08/27 08:05:05;;;;;;;6.88;1.33;;;;;;;;;;5144740;27;20104;-77
2022/08/27 08:07:33;;;;;;;3.97;1.40;;;;;;;;;;5153565;27;20050;-76
2022/08/27 08:10:01;;;;;;;4.80;1.40;;;;;;;;;;5153545;27;20046;-74
2022/08/27 08:12:28;;;;;;;5.32;1.42;;;;;;;;;;5154927;27;20051;-75
2022/08/27 08:14:56;;;;;;;5.20;1.40;;;;;;;;;;5147364;27;20128;-74
2022/08/27 08:17:24;;;;;;;4.18;1.30;;;;;;;;;;5151996;27;20067;-76
2022/08/27 08:19:52;;;;;;;2.55;1.20;;;;;;;;;;5146052;27;20051;-75
2022/08/27 08:22:40;;;;;;;3.75;1.30;;;;;;;;;;5146826;27;20046;-74
2022/08/27 08:25:07;;;;;;;2.95;1.20;;;;;;;;;;5140893;27;20047;-75
2022/08/27 08:27:40;;;;;;;3.70;1.17;;;;;;;;;;5138320;27;20725;-75
2022/08/27 08:30:08;;;;;;;2.67;1.35;;;;;;;;;;5147427;27;20051;-75
2022/08/27 08:32:35;;;;;;;3.10;1.30;;;;;;;;;;5148989;27;20081;-74
2022/08/27 08:35:02;;;;;;;5.20;1.30;;;;;;;;;;5149098;27;20038;-76
2022/08/27 08:37:29;;;;;;;5.95;1.52;;;;;;;;;;5146723;27;20048;-75
2022/08/27 08:39:56;;;;;;;7.32;1.33;;;;;;;;;;5150946;27;20053;-75
2022/08/27 08:42:39;;;;;;;9.20;1.70;;;;;;;;;;5151213;27;20039;-75
2022/08/27 08:45:11;;;;;;;1.75;0.85;;;;;;;;;;5145482;27;20173;-75
2022/08/27 08:47:38;;;;;;;2.90;1.20;;;;;;;;;;5151199;27;20043;-74
2022/08/27 08:50:05;;;;;;;4.75;1.45;;;;;;;;;;5156575;27;20785;-76
2022/08/27 08:52:58;;;;;;;5.43;1.33;;;;;;;;;;5150971;27;20047;-74
2022/08/27 08:55:26;;;;;;;4.10;1.15;;;;;;;;;;5145899;27;20056;-75
2022/08/27 08:58:00;;;;;;;3.60;1.27;;;;;;;;;;5150183;27;20090;-76
2022/08/27 09:00:27;;;;;;;4.65;1.30;;;;;;;;;;5146987;27;20058;-74
2022/08/27 09:02:54;;;;;;;4.70;1.25;;;;;;;;;;5152237;27;20057;-77
2022/08/27 09:05:24;;;;;;;4.55;1.20;;;;;;;;;;5154074;27;20061;-75
2022/08/27 09:08:01;;;;;;;3.83;1.37;;;;;;;;;;5151758;27;20059;-77
2022/08/27 09:10:52;;;;;;;3.30;1.10;;;;;;;;;;5152216;27;20039;-75
2022/08/27 09:13:22;;;;;;;3.90;1.20;;;;;;;;;;5144756;27;20046;-76
2022/08/27 09:15:51;;;;;;;2.30;1.02;;;;;;;;;;5153783;27;20027;-76
2022/08/27 09:18:19;;;;;;;4.88;1.17;;;;;;;;;;5151435;27;20043;-76
2022/08/27 09:20:49;;;;;;;5.85;1.30;;;;;;;;;;5147329;27;20069;-74
2022/08/27 09:23:23;;;;;;;4.05;1.30;;;;;;;;;;5149398;27;20062;-76
2022/08/27 09:25:51;;;;;;;4.75;1.30;;;;;;;;;;5156652;27;20062;-76
2022/08/27 09:31:15;;;;;;;3.10;1.10;;;;;;;;;;5151098;27;20063;-74
2022/08/27 09:33:42;;;;;;;5.20;1.20;;;;;;;;;;5137698;27;20028;-74
2022/08/27 09:36:23;;;;;;;4.95;1.20;;;;;;;;;;5152648;27;20059;-76
2022/08/27 09:38:53;;;;;;;2.95;1.23;;;;;;;;;;5157375;27;20062;-75
2022/08/27 09:41:24;;;;;;;;;;;;;;;;;;5155098;27;20057;-75
2022/08/27 09:43:59;;;;;;;3.75;1.33;;;;;;;;;;5146995;27;43280;-74
2022/08/27 09:46:27;;;;;;;7.88;1.38;;;;;;;;;;5149655;27;20047;-74
2022/08/27 09:48:54;;;;;;;4.63;1.20;;;;;;;;;;5147255;27;20044;-75
2022/08/27 09:51:24;;;;;;;6.47;1.42;;;;;;;;;;5155517;27;20039;-75
2022/08/27 09:53:53;;;;;;;2.63;1.02;;;;;;;;;;5166976;27;20053;-75
2022/08/27 09:56:26;;;;;;;6.03;1.83;;;;;;;;;;5154436;27;20058;-75
2022/08/27 09:59:05;;;;;;;2.83;1.08;;;;;;;;;;5157252;27;20069;-76
2022/08/27 10:01:33;;;;;;;8.45;1.40;;;;;;;;;;5157105;27;20050;-77
2022/08/27 10:04:04;;;;;;;5.65;1.20;;;;;;;;;;5168896;27;20183;-77
2022/08/27 10:06:31;;;;;;;5.80;1.45;;;;;;;;;;5170968;27;20055;-77
2022/08/27 10:09:09;;;;;;;6.07;1.40;;;;;;;;;;5171357;27;20098;-77
2022/08/27 10:11:44;;;;;;;3.25;1.10;;;;;;;;;;5165745;27;20050;-77
2022/08/27 10:14:32;;;;;;;5.65;1.23;;;;;;;;;;5166844;27;20102;-78
2022/08/27 10:17:02;;;;;;;3.75;1.10;;;;;;;;;;5171405;27;20032;-77
2022/08/27 10:19:49;;;;;;;3.58;1.23;;;;;;;;;;5167843;27;20095;-77
2022/08/27 10:22:31;;;;;;;4.78;1.40;;;;;;;;;;5166341;27;20044;-77
2022/08/27 10:25:05;;;;;;;3.38;1.50;;;;;;;;;;5161421;27;20043;-76
2022/08/27 10:27:35;;;;;;;7.93;1.42;;;;;;;;;;5158250;27;20034;-75
2022/08/27 10:30:15;;;;;;;3.80;1.38;;;;;;;;;;5161981;27;20051;-76
2022/08/27 10:32:48;;;;;;;4.82;1.58;;;;;;;;;;5157295;27;20100;-76
2022/08/27 10:35:22;;;;;;;4.30;1.10;;;;;;;;;;5163095;27;20068;-75
2022/08/27 10:37:51;;;;;;;2.75;1.20;;;;;;;;;;5158529;27;20032;-75
2022/08/27 10:40:23;;;;;;;5.93;1.30;;;;;;;;;;5163462;27;20043;-75
2022/08/27 10:43:09;;;;;;;4.07;1.43;;;;;;;;;;5163775;27;20111;-76
2022/08/27 10:45:48;;;;;;;4.50;1.30;;;;;;;;;;5157088;27;20225;-76
2022/08/27 10:48:24;;;;;;;3.90;1.27;;;;;;;;;;5159400;27;20051;-75
2022/08/27 10:51:10;;;;;;;6.18;1.77;;;;;;;;;;5159218;27;20055;-74
2022/08/27 10:53:44;;;;;;;4.40;1.35;;;;;;;;;;5159172;27;20043;-77
2022/08/27 10:56:33;;;;;;;5.90;1.10;;;;;;;;;;5160403;27;20051;-75
2022/08/27 10:59:04;;;;;;;4.13;1.60;;;;;;;;;;5166208;27;20053;-76
2022/08/27 11:01:46;;;;;;;3.50;1.38;;;;;;;;;;5162224;27;20069;-75
2022/08/27 11:04:21;;;;;;;2.33;1.30;;;;;;;;;;5158065;27;20043;-76
2022/08/27 11:06:52;;;;;;;6.97;1.25;;;;;;;;;;5163634;27;20096;-75
2022/08/27 11:09:29;;;;;;;5.65;1.33;;;;;;;;;;5159623;27;20040;-75
2022/08/27 11:11:58;;;;;;;6.22;1.50;;;;;;;;;;5155449;27;20043;-75
2022/08/27 11:14:59;;;;;;;6.75;1.38;;;;;;;;;;5156513;27;20055;-76
2022/08/27 11:17:31;;;;;;;11.07;1.70;;;;;;;;;;5166026;27;20091;-75
2022/08/27 11:19:58;;;;;;;3.10;1.08;;;;;;;;;;5160860;27;20668;-73
2022/08/27 11:22:32;;;;;;;2.92;1.27;;;;;;;;;;5154780;27;20047;-75
2022/08/27 11:25:02;;;;;;;4.50;1.60;;;;;;;;;;5165650;27;20112;-75
2022/08/27 11:27:31;;;;;;;6.10;1.25;;;;;;;;;;5163238;27;20047;-76
2022/08/27 11:30:01;;;;;;;5.43;1.48;;;;;;;;;;5167356;27;20091;-76
2022/08/27 11:32:28;;;;;;;2.88;1.20;;;;;;;;;;5158380;27;20130;-75
2022/08/27 11:34:58;;;;;;;5.80;1.38;;;;;;;;;;5156943;27;20158;-74
2022/08/27 11:37:25;;;;;;;8.35;1.50;;;;;;;;;;5157323;27;20067;-75
2022/08/27 11:39:52;;;;;;;3.78;1.30;;;;;;;;;;5164222;27;20050;-76
2022/08/27 11:42:31;;;;;;;2.67;1.27;;;;;;;;;;5159937;27;20078;-75
2022/08/27 11:45:04;;;;;;;4.93;1.27;;;;;;;;;;5162381;27;20111;-74
2022/08/27 11:47:31;;;;;;;6.38;1.20;;;;;;;;;;5152382;27;20142;-75
2022/08/27 11:50:04;;;;;;;3.45;1.25;;;;;;;;;;5153895;27;20031;-74
2022/08/27 11:52:37;;;;;;;3.75;1.33;;;;;;;;;;5146139;27;20853;-75
2022/08/27 11:55:19;;;;;;;5.07;1.40;;;;;;;;;;5155728;27;20055;-74
2022/08/27 11:57:47;;;;;;;8.07;1.60;;;;;;;;;;5144728;27;20054;-75
2022/08/27 12:00:29;;;;;;;4.75;1.20;;;;;;;;;;5153921;27;20051;-76
2022/08/27 12:03:01;;;;;;;2.70;1.08;;;;;;;;;;5154113;27;20049;-75
2022/08/27 12:05:44;;;;;;;3.28;1.00;;;;;;;;;;5158099;27;20069;-74
2022/08/27 12:08:37;;;;;;;5.23;1.50;;;;;;;;;;5159225;27;20049;-75
2022/08/27 12:11:18;;;;;;;5.97;1.50;;;;;;;;;;5147073;27;20051;-76
2022/08/27 12:13:52;;;;;;;5.93;1.77;;;;;;;;;;5149923;27;20869;-75
2022/08/27 12:16:19;;;;;;;3.65;1.20;;;;;;;;;;5151133;27;20073;-75
2022/08/27 12:19:05;;;;;;;10.38;2.00;;;;;;;;;;5152765;27;20099;-76
2022/08/27 12:21:36;;;;;;;4.55;1.33;;;;;;;;;;5157608;27;20066;-74
2022/08/27 12:24:24;;;;;;;4.82;1.48;;;;;;;;;;5154109;27;20047;-75
2022/08/27 12:26:59;;;;;;;7.72;2.00;;;;;;;;;;5140782;27;20043;-75
2022/08/27 12:29:35;;;;;;;4.63;1.13;;;;;;;;;;5151124;27;20130;-75
2022/08/27 12:32:20;;;;;;;4.38;1.38;;;;;;;;;;5161130;27;20016;-76
2022/08/27 12:34:52;;;;;;;5.60;1.25;;;;;;;;;;5159769;27;20047;-76
2022/08/27 12:37:27;;;;;;;3.78;1.00;;;;;;;;;;5158969;27;20079;-74
2022/08/27 12:39:57;;;;;;;4.82;1.33;;;;;;;;;;5152377;27;20759;-76
2022/08/27 12:42:25;;;;;;;3.53;1.30;;;;;;;;;;5154247;27;20031;-75
2022/08/27 12:44:56;;;;;;;3.63;1.13;;;;;;;;;;5147846;27;20055;-74
2022/08/27 12:47:23;;;;;;;3.75;1.10;;;;;;;;;;5155163;27;20073;-74
2022/08/27 12:49:50;;;;;;;5.88;1.42;;;;;;;;;;5160131;27;20106;-75
2022/08/27 12:52:34;;;;;;;3.05;1.27;;;;;;;;;;5160088;27;20065;-74
2022/08/27 12:55:11;;;;;;;7.75;1.65;;;;;;;;;;5156706;27;20051;-75
2022/08/27 12:57:57;;;;;;;7.70;1.52;;;;;;;;;;5154185;27;20051;-74
2022/08/27 13:00:31;;;;;;;4.95;1.45;;;;;;;;;;5158923;27;20044;-75
2022/08/27 13:03:08;;;;;;;5.60;1.55;;;;;;;;;;5151214;27;20042;-74
2022/08/27 13:05:37;;;;;;;8.80;1.58;;;;;;;;;;5157342;27;20137;-75
2022/08/27 13:08:04;;;;;;;6.53;1.42;;;;;;;;;;5149508;27;20054;-74
2022/08/27 13:10:32;;;;;;;5.50;1.20;;;;;;;;;;5153418;27;20044;-76
2022/08/27 13:13:02;;;;;;;4.25;1.35;;;;;;;;;;5157058;27;20053;-74
2022/08/27 13:15:29;;;;;;;5.60;1.23;;;;;;;;;;5153930;27;20047;-76
2022/08/27 13:17:57;;;;;;;5.97;1.15;;;;;;;;;;5152729;27;20067;-75
2022/08/27 13:20:29;;;;;;;2.30;1.17;;;;;;;;;;5143127;27;20040;-76
2022/08/27 13:22:56;;;;;;;3.63;1.27;;;;;;;;;;5151644;27;20086;-77
2022/08/27 13:25:30;;;;;;;2.45;1.02;;;;;;;;;;5157466;27;20122;-77
2022/08/27 13:28:06;;;;;;;4.47;1.40;;;;;;;;;;5155350;27;20054;-77
2022/08/27 13:30:43;;;;;;;6.68;1.42;;;;;;;;;;5149669;27;20067;-76
2022/08/27 13:33:16;;;;;;;7.53;1.50;;;;;;;;;;5154082;27;20030;-75
2022/08/27 13:35:44;;;;;;;3.58;1.27;;;;;;;;;;5153738;27;20139;-74
2022/08/27 13:38:14;;;;;;;6.97;1.50;;;;;;;;;;5131629;27;34503;-76
2022/08/27 13:40:53;;;;;;;6.43;1.75;;;;;;;;;;5152352;27;20038;-75
2022/08/27 13:43:26;;;;;;;5.75;1.70;;;;;;;;;;5152463;27;20058;-77
2022/08/27 13:45:58;;;;;;;4.75;1.60;;;;;;;;;;5147858;27;20078;-75
2022/08/27 13:48:27;;;;;;;4.50;1.25;;;;;;;;;;5150973;27;20051;-77
2022/08/27 13:50:56;;;;;;;4.53;1.27;;;;;;;;;;5154904;27;20040;-75
2022/08/27 13:56:24;;;;;;;3.90;1.70;;;;;;;;;;5147558;27;20051;-75
2022/08/27 13:58:51;;;;;;;4.28;1.30;;;;;;;;;;5146265;27;20045;-75
2022/08/27 14:01:27;;;;;;;9.15;1.33;;;;;;;;;;5145296;27;20051;-75
2022/08/27 14:04:02;;;;;;;9.65;1.70;;;;;;;;;;5145846;27;20051;-75
2022/08/27 14:06:46;;;;;;;3.38;1.33;;;;;;;;;;5160268;27;20047;-75
2022/08/27 14:09:16;;;;;;;6.78;1.50;;;;;;;;;;5147675;27;20043;-76
2022/08/27 14:11:44;;;;;;;6.20;1.45;;;;;;;;;;5154348;27;20095;-76
2022/08/27 14:14:11;;;;;;;4.20;1.50;;;;;;;;;;5147964;27;20849;-76
2022/08/27 14:16:39;;;;;;;5.53;1.13;;;;;;;;;;5153947;27;20043;-75
2022/08/27 14:19:10;;;;;;;8.13;1.70;;;;;;;;;;5141766;27;20980;-75
2022/08/27 14:21:39;;;;;;;7.87;1.53;;;;;;;;;;5157388;27;20765;-75
2022/08/27 14:24:07;;;;;;;7.10;1.33;;;;;;;;;;5153932;27;20047;-76
2022/08/27 14:26:34;;;;;;;5.35;1.60;;;;;;;;;;5151123;27;20050;-75
2022/08/27 14:29:01;;;;;;;4.45;1.23;;;;;;;;;;5158078;27;20055;-74
2022/08/27 14:31:37;;;;;;;8.13;1.52;;;;;;;;;;5151106;27;20044;-73
2022/08/27 14:34:07;;;;;;;7.28;1.45;;;;;;;;;;5132788;27;20114;-74
2022/08/27 14:36:35;;;;;;;3.92;1.35;;;;;;;;;;5160380;27;20060;-74
2022/08/27 14:39:03;;;;;;;3.67;1.20;;;;;;;;;;5139943;27;20044;-75
2022/08/27 14:41:32;;;;;;;8.27;1.08;;;;;;;;;;5162176;27;20047;-74
2022/08/27 14:43:59;;;;;;;7.00;1.60;;;;;;;;;;5161209;27;20036;-77
2022/08/27 14:46:30;;;;;;;3.03;1.10;;;;;;;;;;5160826;27;20045;-76
2022/08/27 14:48:59;;;;;;;7.10;1.30;;;;;;;;;;5134081;27;20064;-74
2022/08/27 14:51:28;;;;;;;6.43;1.50;;;;;;;;;;5144869;27;20050;-76
2022/08/27 14:53:56;;;;;;;6.18;1.50;;;;;;;;;;5138135;27;20196;-76
2022/08/27 14:56:26;;;;;;;5.22;1.45;;;;;;;;;;5140941;27;20104;-76
2022/08/27 14:58:53;;;;;;;3.47;1.38;;;;;;;;;;5148402;27;20058;-76
2022/08/27 15:01:24;;;;;;;5.25;1.13;;;;;;;;;;5145636;27;20140;-76
2022/08/27 15:03:53;;;;;;;6.18;1.35;;;;;;;;;;5161648;27;20439;-75
2022/08/27 15:06:22;;;;;;;2.42;1.00;;;;;;;;;;5156231;27;20054;-76
2022/08/27 15:08:50;;;;;;;9.10;1.70;;;;;;;;;;5156813;27;20047;-76
2022/08/27 15:11:23;;;;;;;7.18;1.60;;;;;;;;;;5143892;27;20040;-78